createdAt,value
2019-03-25T00:01:27.063Z,14.50
2019-03-25T00:03:56.021Z,14.30
2019-03-25T00:06:24.631Z,14.10
2019-03-25T00:09:04.877Z,13.80
2019-03-25T00:11:24.128Z,13.60
2019-03-25T00:13:52.846Z,13.50
2019-03-25T00:16:21.523Z,13.50
2019-03-25T00:18:50.556Z,13.40
2019-03-25T00:21:19.269Z,13.30
2019-03-25T00:23:48.121Z,13.40
2019-03-25T00:26:16.738Z,13.60
2019-03-25T00:28:45.378Z,13.70
2019-03-25T00:31:14.126Z,13.70
2019-03-25T00:33:43.061Z,13.70
2019-03-25T00:36:11.681Z,13.70
2019-03-25T00:38:40.346Z,13.70
2019-03-25T00:41:08.965Z,13.70
2019-03-25T00:43:37.842Z,13.60
2019-03-25T00:46:06.559Z,13.50
2019-03-25T00:48:35.205Z,13.50
2019-03-25T00:51:03.974Z,13.40
2019-03-25T00:53:32.602Z,13.30
2019-03-25T00:56:01.272Z,13.30
2019-03-25T00:58:29.933Z,13.30
2019-03-25T01:00:58.653Z,13.40
2019-03-25T01:03:27.437Z,13.30
2019-03-25T01:05:56.057Z,13.30
2019-03-25T01:08:24.732Z,13.30
2019-03-25T01:10:53.541Z,13.30
2019-03-25T01:13:22.258Z,13.40
2019-03-25T01:15:51.284Z,13.40
2019-03-25T01:18:19.966Z,13.50
2019-03-25T01:20:48.684Z,13.50
2019-03-25T01:23:17.677Z,13.50
2019-03-25T01:25:46.437Z,13.40
2019-03-25T01:28:15.152Z,13.40
2019-03-25T01:30:44.157Z,13.40
2019-03-25T01:33:13.570Z,13.40
2019-03-25T01:35:42.182Z,13.40
2019-03-25T01:38:10.933Z,13.40
2019-03-25T01:40:40.069Z,13.30
2019-03-25T01:43:08.694Z,13.20
2019-03-25T01:45:37.446Z,13.00
2019-03-25T01:48:06.164Z,12.90
2019-03-25T01:50:34.827Z,12.80
2019-03-25T01:53:03.493Z,12.70
2019-03-25T01:55:32.106Z,12.70
2019-03-25T01:58:00.774Z,12.60
2019-03-25T02:00:29.489Z,12.40
2019-03-25T02:02:58.341Z,12.30
2019-03-25T02:05:26.960Z,12.30
2019-03-25T02:07:55.684Z,12.30
2019-03-25T02:10:24.452Z,12.20
2019-03-25T02:12:53.068Z,12.20
2019-03-25T02:15:21.813Z,12.10
2019-03-25T02:17:50.440Z,12.00
2019-03-25T02:20:26.409Z,11.90
2019-03-25T02:22:50.239Z,11.70
2019-03-25T02:25:25.245Z,11.60
2019-03-25T02:27:49.529Z,11.60
2019-03-25T02:30:18.329Z,11.50
2019-03-25T02:32:46.951Z,11.50
2019-03-25T02:35:15.616Z,11.50
2019-03-25T02:37:44.234Z,11.40
2019-03-25T02:40:13.175Z,11.40
2019-03-25T02:42:41.825Z,11.20
2019-03-25T02:45:10.616Z,11.10
2019-03-25T02:47:39.444Z,11.00
2019-03-25T02:50:08.313Z,11.00
2019-03-25T02:52:37.058Z,10.90
2019-03-25T02:55:06.502Z,10.90
2019-03-25T02:57:35.214Z,10.90
2019-03-25T03:00:04.919Z,10.90
2019-03-25T03:02:33.537Z,11.00
2019-03-25T03:05:02.522Z,11.00
2019-03-25T03:07:31.242Z,11.10
2019-03-25T03:10:00.012Z,11.00
2019-03-25T03:12:28.791Z,11.00
2019-03-25T03:14:57.442Z,11.10
2019-03-25T03:17:26.162Z,11.10
2019-03-25T03:19:55.338Z,11.00
2019-03-25T03:22:24.113Z,10.90
2019-03-25T03:24:52.786Z,10.80
2019-03-25T03:27:21.496Z,10.80
2019-03-25T03:29:50.180Z,10.60
2019-03-25T03:32:18.804Z,10.50
2019-03-25T03:34:47.577Z,10.60
2019-03-25T03:37:16.186Z,10.50
2019-03-25T03:39:44.864Z,10.50
2019-03-25T03:42:13.529Z,10.60
2019-03-25T03:44:42.132Z,10.60
2019-03-25T03:47:11.045Z,10.50
2019-03-25T03:49:39.986Z,10.40
2019-03-25T03:52:09.078Z,10.40
2019-03-25T03:54:38.474Z,10.40
2019-03-25T03:57:07.814Z,10.20
2019-03-25T03:59:37.089Z,10.20
2019-03-25T04:02:05.813Z,10.10
2019-03-25T04:04:34.491Z,10.00
2019-03-25T04:07:03.113Z,9.90
2019-03-25T04:09:31.924Z,9.90
2019-03-25T04:12:00.606Z,9.80
2019-03-25T04:14:29.323Z,9.80
2019-03-25T04:16:57.996Z,9.70
2019-03-25T04:19:26.622Z,9.70
2019-03-25T04:21:56.310Z,9.60
2019-03-25T04:24:24.987Z,9.60
2019-03-25T04:26:54.184Z,9.50
2019-03-25T04:29:22.807Z,9.50
2019-03-25T04:31:51.473Z,9.30
2019-03-25T04:34:20.670Z,9.30
2019-03-25T04:36:49.357Z,9.20
2019-03-25T04:39:18.020Z,9.10
2019-03-25T04:41:47.067Z,9.00
2019-03-25T04:44:16.037Z,8.90
2019-03-25T04:46:44.656Z,8.80
2019-03-25T04:49:13.289Z,8.70
2019-03-25T04:51:44.586Z,8.70
2019-03-25T04:54:12.394Z,8.80
2019-03-25T04:56:41.491Z,8.70
2019-03-25T04:59:10.113Z,8.60
2019-03-25T05:01:38.859Z,8.70
2019-03-25T05:04:07.581Z,8.70
2019-03-25T05:06:36.302Z,8.60
2019-03-25T05:09:05.851Z,8.60
2019-03-25T05:11:34.513Z,8.60
2019-03-25T05:14:03.229Z,8.50
2019-03-25T05:16:31.846Z,8.60
2019-03-25T05:19:00.628Z,8.50
2019-03-25T05:21:30.319Z,8.40
2019-03-25T05:23:58.961Z,8.30
2019-03-25T05:26:27.627Z,8.30
2019-03-25T05:28:56.256Z,8.10
2019-03-25T05:31:24.998Z,8.00
2019-03-25T05:33:53.824Z,8.00
2019-03-25T05:36:22.511Z,8.00
2019-03-25T05:38:51.140Z,7.90
2019-03-25T05:41:19.821Z,7.90
2019-03-25T05:43:48.764Z,7.90
2019-03-25T05:46:17.503Z,7.90
2019-03-25T05:48:46.408Z,8.00
2019-03-25T05:51:15.100Z,8.10
2019-03-25T05:53:43.853Z,8.10
2019-03-25T05:56:12.768Z,8.00
2019-03-25T05:58:41.424Z,8.00
2019-03-25T06:01:10.124Z,7.90
2019-03-25T06:03:38.784Z,7.90
2019-03-25T06:06:07.386Z,7.90
2019-03-25T06:08:36.056Z,7.90
2019-03-25T06:11:05.734Z,7.90
2019-03-25T06:13:34.799Z,8.00
2019-03-25T06:16:03.552Z,8.00
2019-03-25T06:18:32.153Z,8.00
2019-03-25T06:21:00.925Z,8.00
2019-03-25T06:23:29.580Z,7.90
2019-03-25T06:25:58.233Z,8.00
2019-03-25T06:28:26.973Z,8.10
2019-03-25T06:30:55.680Z,8.20
2019-03-25T06:33:24.288Z,8.20
2019-03-25T06:35:53.050Z,8.30
2019-03-25T06:38:21.645Z,8.50
2019-03-25T06:40:50.344Z,8.60
2019-03-25T06:43:18.996Z,8.80
2019-03-25T06:45:47.596Z,9.20
2019-03-25T06:48:16.677Z,9.40
2019-03-25T06:50:45.297Z,9.80
2019-03-25T06:53:14.797Z,10.30
2019-03-25T06:55:43.504Z,10.90
2019-03-25T06:58:43.158Z,11.40
2019-03-25T07:01:11.887Z,11.80
2019-03-25T07:03:40.887Z,12.20
2019-03-25T07:06:59.444Z,12.70
2019-03-25T07:09:28.372Z,12.90
2019-03-25T07:11:57.283Z,13.10
2019-03-25T07:14:27.049Z,13.20
2019-03-25T07:16:55.688Z,13.30
2019-03-25T07:19:24.321Z,13.40
2019-03-25T07:21:54.384Z,13.50
2019-03-25T07:24:23.052Z,13.50
2019-03-25T07:26:51.660Z,13.70
2019-03-25T07:29:20.380Z,13.80
2019-03-25T07:31:49.637Z,13.80
2019-03-25T07:34:18.314Z,13.90
2019-03-25T07:36:47.426Z,14.00
2019-03-25T07:39:16.201Z,14.10
2019-03-25T07:41:44.821Z,14.20
2019-03-25T07:44:13.556Z,14.20
2019-03-25T07:46:42.356Z,14.30
2019-03-25T07:49:10.983Z,14.40
2019-03-25T07:51:39.620Z,14.50
2019-03-25T07:54:08.391Z,14.50
2019-03-25T07:56:37.248Z,14.60
2019-03-25T07:59:06.647Z,14.70
2019-03-25T08:01:35.452Z,14.70
2019-03-25T08:04:04.533Z,14.90
2019-03-25T08:06:33.299Z,15.00
2019-03-25T08:09:04.046Z,15.10
2019-03-25T08:11:32.416Z,15.20
2019-03-25T08:14:01.019Z,15.20
2019-03-25T08:16:29.796Z,15.30
2019-03-25T08:18:58.396Z,15.40
2019-03-25T08:21:27.015Z,15.70
2019-03-25T08:23:56.529Z,15.70
2019-03-25T08:26:25.133Z,15.80
2019-03-25T08:28:53.746Z,15.90
2019-03-25T08:31:23.932Z,15.80
2019-03-25T08:33:52.563Z,16.10
2019-03-25T08:36:21.184Z,16.20
2019-03-25T08:38:49.978Z,16.30
2019-03-25T08:41:18.705Z,16.60
2019-03-25T08:43:47.320Z,16.80
2019-03-25T08:46:16.073Z,17.10
2019-03-25T08:48:44.706Z,17.00
2019-03-25T08:51:13.316Z,17.20
2019-03-25T08:53:42.004Z,17.40
2019-03-25T08:56:10.604Z,17.60
2019-03-25T08:58:39.373Z,17.80
2019-03-25T09:01:08.098Z,17.80
2019-03-25T09:03:36.712Z,17.70
2019-03-25T09:06:05.509Z,17.80
2019-03-25T09:08:34.182Z,18.00
2019-03-25T09:11:03.450Z,18.20
2019-03-25T09:13:32.149Z,18.40
2019-03-25T09:16:00.882Z,18.60
2019-03-25T09:18:29.676Z,18.60
2019-03-25T09:21:02.609Z,18.40
2019-03-25T09:23:33.585Z,18.30
2019-03-25T09:26:05.398Z,18.40
2019-03-25T09:28:38.526Z,18.20
2019-03-25T09:31:12.301Z,18.40
2019-03-25T09:33:44.073Z,18.40
2019-03-25T09:36:14.389Z,18.40
2019-03-25T09:38:44.617Z,18.30
2019-03-25T09:41:14.453Z,18.20
2019-03-25T09:43:44.705Z,18.30
2019-03-25T09:46:15.374Z,18.20
2019-03-25T09:48:45.513Z,18.00
2019-03-25T09:51:22.824Z,18.10
2019-03-25T09:53:53.667Z,18.30
2019-03-25T09:56:24.993Z,18.40
2019-03-25T09:58:57.273Z,18.50
2019-03-25T10:01:27.387Z,18.50
2019-03-25T10:03:58.712Z,18.60
2019-03-25T10:06:30.380Z,18.90
2019-03-25T10:09:00.221Z,19.10
2019-03-25T10:11:33.112Z,19.20
2019-03-25T10:14:04.041Z,19.50
2019-03-25T10:16:34.752Z,19.90
2019-03-25T10:19:04.730Z,20.00
2019-03-25T10:21:35.274Z,20.30
2019-03-25T10:24:08.176Z,20.20
2019-03-25T10:26:38.566Z,20.10
2019-03-25T10:29:09.951Z,20.30
2019-03-25T10:31:39.640Z,20.10
2019-03-25T10:34:11.556Z,20.30
2019-03-25T10:36:42.675Z,20.70
2019-03-25T10:39:14.324Z,20.60
2019-03-25T10:41:45.066Z,20.70
2019-03-25T10:44:14.720Z,20.80
2019-03-25T10:46:44.459Z,20.70
2019-03-25T10:49:16.245Z,20.70
2019-03-25T10:51:47.511Z,20.80
2019-03-25T10:54:17.849Z,20.70
2019-03-25T10:56:49.361Z,20.60
2019-03-25T10:59:19.736Z,20.50
2019-03-25T11:01:52.757Z,20.60
2019-03-25T11:04:24.779Z,20.60
2019-03-25T11:06:55.595Z,20.50
2019-03-25T11:09:27.540Z,20.80
2019-03-25T11:11:59.863Z,20.90
2019-03-25T11:14:29.497Z,21.00
2019-03-25T11:16:59.234Z,21.10
2019-03-25T11:19:29.200Z,21.40
2019-03-25T11:21:59.209Z,21.10
2019-03-25T11:24:29.313Z,21.20
2019-03-25T11:26:59.362Z,21.40
2019-03-25T11:29:29.293Z,21.50
2019-03-25T11:31:58.476Z,21.40
2019-03-25T11:34:29.604Z,21.20
2019-03-25T11:37:01.969Z,21.20
2019-03-25T11:39:32.649Z,21.20
2019-03-25T11:42:05.131Z,21.20
2019-03-25T11:44:40.012Z,21.50
2019-03-25T11:47:12.813Z,21.20
2019-03-25T11:49:45.576Z,21.30
2019-03-25T11:52:16.776Z,21.20
2019-03-25T11:54:48.974Z,21.10
2019-03-25T11:57:19.541Z,21.00
2019-03-25T11:59:51.573Z,21.20
2019-03-25T12:02:22.591Z,21.30
2019-03-25T12:04:55.223Z,21.40
2019-03-25T12:07:25.290Z,21.30
2019-03-25T12:09:58.839Z,21.20
2019-03-25T12:12:36.690Z,21.10
2019-03-25T12:15:09.606Z,21.10
2019-03-25T12:17:46.460Z,21.10
2019-03-25T12:20:19.128Z,21.20
2019-03-25T12:22:50.856Z,21.20
2019-03-25T12:25:20.423Z,21.10
2019-03-25T12:27:52.348Z,21.20
2019-03-25T12:30:22.939Z,21.30
2019-03-25T12:33:04.184Z,21.40
2019-03-25T12:35:34.595Z,21.10
2019-03-25T12:38:05.085Z,21.10
2019-03-25T12:40:35.370Z,21.20
2019-03-25T12:43:05.088Z,21.20
2019-03-25T12:45:35.444Z,21.50
2019-03-25T12:48:06.774Z,21.50
2019-03-25T12:50:40.373Z,21.20
2019-03-25T12:53:10.495Z,21.10
2019-03-25T12:55:39.633Z,21.20
2019-03-25T12:58:09.630Z,21.40
2019-03-25T13:00:42.242Z,21.40
2019-03-25T13:03:12.492Z,21.30
2019-03-25T13:05:44.715Z,21.40
2019-03-25T13:08:14.532Z,21.30
2019-03-25T13:10:47.136Z,21.30
2019-03-25T13:13:16.439Z,21.10
2019-03-25T13:15:45.848Z,21.10
2019-03-25T13:18:15.188Z,21.20
2019-03-25T13:20:45.208Z,21.30
2019-03-25T13:23:14.719Z,21.50
2019-03-25T13:25:44.757Z,21.60
2019-03-25T13:28:17.485Z,21.60
2019-03-25T13:30:47.540Z,21.40
2019-03-25T13:33:16.164Z,21.60
2019-03-25T13:35:46.509Z,21.70
2019-03-25T13:38:18.006Z,21.70
2019-03-25T13:40:48.360Z,21.60
2019-03-25T13:43:17.880Z,21.60
2019-03-25T13:45:49.964Z,21.60
2019-03-25T13:48:19.526Z,21.50
2019-03-25T13:50:48.760Z,21.50
2019-03-25T13:53:17.819Z,21.60
2019-03-25T13:55:47.754Z,21.60
2019-03-25T13:58:16.942Z,21.40
2019-03-25T14:00:46.129Z,21.50
2019-03-25T14:03:16.048Z,21.10
2019-03-25T14:05:46.333Z,21.10
2019-03-25T14:08:16.428Z,21.00
2019-03-25T14:10:47.520Z,21.10
2019-03-25T14:13:17.572Z,21.20
2019-03-25T14:15:47.716Z,21.30
2019-03-25T14:18:18.834Z,21.20
2019-03-25T14:20:48.738Z,20.90
2019-03-25T14:23:18.724Z,21.10
2019-03-25T14:25:49.057Z,20.90
2019-03-25T14:28:18.848Z,20.70
2019-03-25T14:30:48.736Z,20.70
2019-03-25T14:33:19.801Z,20.80
2019-03-25T14:35:50.001Z,20.80
2019-03-25T14:38:20.572Z,20.70
2019-03-25T14:40:50.932Z,20.60
2019-03-25T14:43:20.966Z,20.60
2019-03-25T14:45:52.211Z,20.50
2019-03-25T14:48:23.438Z,20.30
2019-03-25T14:50:57.172Z,20.40
2019-03-25T14:53:28.416Z,20.40
2019-03-25T14:55:58.766Z,20.30
2019-03-25T14:58:30.549Z,20.30
2019-03-25T15:01:00.645Z,20.30
2019-03-25T15:03:30.028Z,20.30
2019-03-25T15:06:01.531Z,20.30
2019-03-25T15:08:32.212Z,20.30
2019-03-25T15:11:03.261Z,20.20
2019-03-25T15:13:35.458Z,20.20
2019-03-25T15:16:07.056Z,20.20
2019-03-25T15:18:39.630Z,20.20
2019-03-25T15:21:13.493Z,20.40
2019-03-25T15:23:44.894Z,20.40
2019-03-25T15:26:15.816Z,20.30
2019-03-25T15:28:48.601Z,20.30
2019-03-25T15:31:20.784Z,20.10
2019-03-25T15:33:56.284Z,20.20
2019-03-25T15:36:27.877Z,20.10
2019-03-25T15:39:00.065Z,20.00
2019-03-25T15:41:33.962Z,19.90
2019-03-25T15:44:05.442Z,19.80
2019-03-25T15:46:37.212Z,19.80
2019-03-25T15:49:12.548Z,19.80
2019-03-25T15:51:43.976Z,19.70
2019-03-25T15:54:18.049Z,19.70
2019-03-25T15:56:51.472Z,19.70
2019-03-25T15:59:24.652Z,19.60
2019-03-25T16:01:56.879Z,19.50
2019-03-25T16:04:29.079Z,19.50
2019-03-25T16:07:03.656Z,19.40
2019-03-25T16:09:34.359Z,19.20
2019-03-25T16:12:05.738Z,19.10
2019-03-25T16:14:39.757Z,19.00
2019-03-25T16:17:08.716Z,19.00
2019-03-25T16:19:37.328Z,19.00
2019-03-25T16:22:06.156Z,19.00
2019-03-25T16:24:34.924Z,18.90
2019-03-25T16:27:03.552Z,18.90
2019-03-25T16:29:32.189Z,18.80
2019-03-25T16:32:00.864Z,18.60
2019-03-25T16:34:29.501Z,18.50
2019-03-25T16:36:58.120Z,18.40
2019-03-25T16:39:26.874Z,18.30
2019-03-25T16:41:55.555Z,18.20
2019-03-25T16:44:24.186Z,18.00
2019-03-25T16:46:52.940Z,17.90
2019-03-25T16:49:21.584Z,17.90
2019-03-25T16:51:50.205Z,17.80
2019-03-25T16:54:18.892Z,17.70
2019-03-25T16:56:48.638Z,17.60
2019-03-25T16:59:17.261Z,17.60
2019-03-25T17:01:45.957Z,17.50
2019-03-25T17:04:15.096Z,17.40
2019-03-25T17:06:43.726Z,17.30
2019-03-25T17:09:12.501Z,17.30
2019-03-25T17:11:41.136Z,17.20
2019-03-25T17:14:09.856Z,17.10
2019-03-25T17:16:38.527Z,17.00
2019-03-25T17:19:07.137Z,16.90
2019-03-25T17:21:36.000Z,16.80
2019-03-25T17:24:04.808Z,16.70
2019-03-25T17:26:41.959Z,16.60
2019-03-25T17:29:04.026Z,16.40
2019-03-25T17:31:32.632Z,16.40
2019-03-25T17:34:01.390Z,16.30
2019-03-25T17:36:30.169Z,16.30
2019-03-25T17:38:58.933Z,16.20
2019-03-25T17:41:27.621Z,16.10
2019-03-25T17:43:56.242Z,16.10
2019-03-25T17:46:24.976Z,16.00
2019-03-25T17:48:54.106Z,15.90
2019-03-25T17:51:22.708Z,15.80
2019-03-25T17:53:51.309Z,15.70
2019-03-25T17:56:20.473Z,15.60
2019-03-25T17:58:49.445Z,15.50
2019-03-25T18:01:19.763Z,15.40
2019-03-25T18:03:48.520Z,15.30
2019-03-25T18:06:17.128Z,15.10
2019-03-25T18:08:46.044Z,15.00
2019-03-25T18:11:14.708Z,14.90
2019-03-25T18:13:43.365Z,14.90
2019-03-25T18:16:12.072Z,14.80
2019-03-25T18:18:41.089Z,14.60
2019-03-25T18:21:10.438Z,14.60
2019-03-25T18:23:39.228Z,14.50
2019-03-25T18:26:07.932Z,14.40
2019-03-25T18:28:36.549Z,14.30
2019-03-25T18:31:05.799Z,14.30
2019-03-25T18:33:35.202Z,14.20
2019-03-25T18:36:04.708Z,14.20
2019-03-25T18:38:33.369Z,14.10
2019-03-25T18:41:11.269Z,14.00
2019-03-25T18:43:40.013Z,14.00
2019-03-25T18:46:08.792Z,13.90
2019-03-25T18:48:37.891Z,13.90
2019-03-25T18:51:06.555Z,13.90
2019-03-25T18:53:35.267Z,13.80
2019-03-25T18:56:04.316Z,13.80
2019-03-25T18:58:32.937Z,13.70
2019-03-25T19:01:02.441Z,13.70
2019-03-25T19:03:31.742Z,13.70
2019-03-25T19:06:00.959Z,13.70
2019-03-25T19:08:31.331Z,13.70
2019-03-25T19:11:00.000Z,13.60
2019-03-25T19:13:28.664Z,13.70
2019-03-25T19:15:57.300Z,13.60
2019-03-25T19:18:25.979Z,13.50
2019-03-25T19:20:54.615Z,13.50
2019-03-25T19:23:23.389Z,13.40
2019-03-25T19:25:52.035Z,13.20
2019-03-25T19:28:20.792Z,13.20
2019-03-25T19:30:49.649Z,13.20
2019-03-25T19:33:18.445Z,13.10
2019-03-25T19:35:47.074Z,13.10
2019-03-25T19:38:15.790Z,13.00
2019-03-25T19:40:44.494Z,13.00
2019-03-25T19:43:13.142Z,12.90
2019-03-25T19:45:41.865Z,12.80
2019-03-25T19:48:10.580Z,12.70
2019-03-25T19:50:39.293Z,12.70
2019-03-25T19:53:18.637Z,12.70
2019-03-25T19:55:38.549Z,12.50
2019-03-25T19:58:07.373Z,12.60
2019-03-25T20:00:38.054Z,12.60
2019-03-25T20:03:07.039Z,12.50
2019-03-25T20:05:35.871Z,12.40
2019-03-25T20:08:04.827Z,12.40
2019-03-25T20:10:34.999Z,12.30
2019-03-25T20:13:04.146Z,12.40
2019-03-25T20:15:45.531Z,12.40
2019-03-25T20:18:03.787Z,12.30
2019-03-25T20:20:32.640Z,12.30
2019-03-25T20:23:01.378Z,12.30
2019-03-25T20:25:30.098Z,12.30
2019-03-25T20:27:58.917Z,12.30
2019-03-25T20:30:27.838Z,12.20
2019-03-25T20:32:56.777Z,12.20
2019-03-25T20:35:25.532Z,12.10
2019-03-25T20:37:54.352Z,12.10
2019-03-25T20:40:22.965Z,12.10
2019-03-25T20:42:51.633Z,12.00
2019-03-25T20:45:20.464Z,12.00
2019-03-25T20:47:49.090Z,12.00
2019-03-25T20:50:17.761Z,11.90
2019-03-25T20:52:46.394Z,11.90
2019-03-25T20:55:15.066Z,11.90
2019-03-25T20:57:43.910Z,11.90
2019-03-25T21:00:13.537Z,11.80
2019-03-25T21:02:45.322Z,11.90
2019-03-25T21:05:12.944Z,11.80
2019-03-25T21:07:41.693Z,11.80
2019-03-25T21:10:10.637Z,11.80
2019-03-25T21:12:39.383Z,11.80
2019-03-25T21:15:09.236Z,11.80
2019-03-25T21:17:37.947Z,11.70
2019-03-25T21:20:07.650Z,11.70
2019-03-25T21:22:36.352Z,11.70
2019-03-25T21:25:07.101Z,11.70
2019-03-25T21:27:35.824Z,11.70
2019-03-25T21:30:05.527Z,11.60
2019-03-25T21:32:34.146Z,11.60
2019-03-25T21:35:03.153Z,11.80
2019-03-25T21:37:31.825Z,11.70
2019-03-25T21:40:00.669Z,11.70
2019-03-25T21:42:29.462Z,11.70
2019-03-25T21:44:58.260Z,11.80
2019-03-25T21:47:26.981Z,11.80
2019-03-25T21:49:55.657Z,11.70
2019-03-25T21:52:24.280Z,11.70
2019-03-25T21:54:52.948Z,11.70
2019-03-25T21:57:21.688Z,11.70
2019-03-25T21:59:50.358Z,11.70
2019-03-25T22:02:18.947Z,11.70
2019-03-25T22:04:48.527Z,11.70
2019-03-25T22:07:17.195Z,11.60
2019-03-25T22:09:46.064Z,11.50
2019-03-25T22:12:15.312Z,11.60
2019-03-25T22:14:43.943Z,11.50
2019-03-25T22:17:12.711Z,11.50
2019-03-25T22:19:41.757Z,11.40
2019-03-25T22:22:10.417Z,11.40
2019-03-25T22:24:39.021Z,11.40
2019-03-25T22:27:07.694Z,11.50
2019-03-25T22:29:36.320Z,11.40
2019-03-25T22:32:05.081Z,11.40
2019-03-25T22:34:33.700Z,11.30
2019-03-25T22:37:02.380Z,11.30
2019-03-25T22:39:31.004Z,11.30
2019-03-25T22:41:59.722Z,11.30
2019-03-25T22:44:28.333Z,11.30
2019-03-25T22:46:56.999Z,11.30
2019-03-25T22:49:25.717Z,11.20
2019-03-25T22:51:54.396Z,11.20
2019-03-25T22:54:23.013Z,11.20
2019-03-25T22:56:51.665Z,11.20
2019-03-25T22:59:20.711Z,11.20
2019-03-25T23:01:49.445Z,11.20
2019-03-25T23:04:18.069Z,11.10
2019-03-25T23:06:46.733Z,11.10
2019-03-25T23:09:15.373Z,11.10
2019-03-25T23:11:45.112Z,11.10
2019-03-25T23:14:13.718Z,11.00
2019-03-25T23:16:42.382Z,10.90
2019-03-25T23:19:10.989Z,10.90
2019-03-25T23:21:39.664Z,10.90
2019-03-25T23:24:08.285Z,10.90
2019-03-25T23:26:36.955Z,10.90
2019-03-25T23:29:05.564Z,10.90
2019-03-25T23:31:34.236Z,10.90
2019-03-25T23:34:02.956Z,10.80
2019-03-25T23:36:31.741Z,10.80
2019-03-25T23:39:00.349Z,10.80
2019-03-25T23:41:29.541Z,10.80
2019-03-25T23:43:58.137Z,10.70
2019-03-25T23:46:26.745Z,10.80
2019-03-25T23:48:55.422Z,10.70
2019-03-25T23:51:24.145Z,10.70
2019-03-25T23:54:10.944Z,10.80
2019-03-25T23:56:40.671Z,10.70
2019-03-25T23:59:09.306Z,10.70
